7NC7 weather

Lewis Airstrip
Walnut Cove, North Carolina, United States

Public forecast

Using degrees Fahrenheit for public forecast. Weather courtesy of forecast.io.

Closest aviation weather report (METAR) to Lewis Airstrip

Closest report is Smith Reynolds Airport, 13.0 nm (24.1 km) S. Retrieved 2020/04/05 09:34 UTC (19 minutes ago):

KINT 050934Z AUTO 05003KT 10SM BKN013 09/06 A3006 RMK AO2 T00890061

Closest aviation forecast (TAF) to Lewis Airstrip

Forecast is more than 6 hours old.

Closest forecast is Smith Reynolds Airport, 13.0 nm (24.1 km) S. Retrieved 2020-04-05 00:42 UTC (9 hours ago):

TAF KINT 042340Z 0500/0524 VRB03KT P6SM SKC